createdAt,value
2022-12-05T00:00:28.456Z,100705.06
2022-12-05T00:02:55.095Z,100697.81
2022-12-05T00:05:21.644Z,100703.13
2022-12-05T00:07:48.240Z,100706.81
2022-12-05T00:10:14.816Z,100707.63
2022-12-05T00:12:41.260Z,100708.44
2022-12-05T00:15:12.375Z,100701.78
2022-12-05T00:17:41.866Z,100711.53
2022-12-05T00:20:09.339Z,100703.72
2022-12-05T00:22:37.329Z,100707.00
2022-12-05T00:25:06.514Z,100695.31
2022-12-05T00:27:33.355Z,100705.38
2022-12-05T00:30:00.116Z,100703.72
2022-12-05T00:32:28.708Z,100708.53
2022-12-05T00:34:55.566Z,100706.59
2022-12-05T00:37:22.352Z,100713.97
2022-12-05T00:39:48.919Z,100708.81
2022-12-05T00:42:15.422Z,100706.69
2022-12-05T00:44:42.026Z,100708.81
2022-12-05T00:47:08.603Z,100708.22
2022-12-05T00:49:35.306Z,100704.72
2022-12-05T00:52:01.929Z,100707.31
2022-12-05T00:54:28.780Z,100711.47
2022-12-05T00:56:58.208Z,100708.81
2022-12-05T00:59:24.711Z,100712.91
2022-12-05T01:01:51.581Z,100715.78
2022-12-05T01:04:20.331Z,100715.50
2022-12-05T01:06:47.451Z,100719.25
2022-12-05T01:09:15.468Z,100718.44
2022-12-05T01:11:42.173Z,100714.56
2022-12-05T01:14:09.408Z,100714.09
2022-12-05T01:16:37.253Z,100718.25
2022-12-05T01:19:05.792Z,100712.41
2022-12-05T01:21:32.511Z,100718.13
2022-12-05T01:23:59.161Z,100713.47
2022-12-05T01:26:25.704Z,100707.66
2022-12-05T01:28:52.807Z,100710.44
2022-12-05T01:31:19.659Z,100715.13
2022-12-05T01:33:46.283Z,100728.63
2022-12-05T01:36:13.123Z,100728.63
2022-12-05T01:38:40.830Z,100727.53
2022-12-05T01:41:08.698Z,100721.66
2022-12-05T01:43:52.900Z,100726.69
2022-12-05T01:46:19.645Z,100729.06
2022-12-05T01:48:46.709Z,100731.00
2022-12-05T01:51:13.321Z,100732.44
2022-12-05T01:53:39.979Z,100739.28
2022-12-05T01:56:07.038Z,100737.84
2022-12-05T01:58:35.666Z,100738.56
2022-12-05T02:01:02.448Z,100739.69
2022-12-05T02:03:29.072Z,100735.97
2022-12-05T02:05:57.661Z,100738.22
2022-12-05T02:08:27.699Z,100742.63
2022-12-05T02:10:55.646Z,100738.41
2022-12-05T02:13:40.682Z,100737.25
2022-12-05T02:16:07.231Z,100739.44
2022-12-05T02:18:42.897Z,100734.66
2022-12-05T02:21:28.588Z,100744.28
2022-12-05T02:23:58.467Z,100736.44
2022-12-05T02:26:33.839Z,100739.50
2022-12-05T02:29:06.258Z,100741.19
2022-12-05T02:31:46.720Z,100746.38
2022-12-05T02:34:20.800Z,100733.91
2022-12-05T02:36:53.094Z,100741.75
2022-12-05T02:39:22.794Z,100743.38
2022-12-05T02:41:52.000Z,100736.25
2022-12-05T02:44:18.627Z,100735.03
2022-12-05T02:46:46.930Z,100745.41
2022-12-05T02:49:16.836Z,100747.53
2022-12-05T02:51:46.221Z,100744.44
2022-12-05T02:54:14.834Z,100738.41
2022-12-05T02:56:43.819Z,100734.66
2022-12-05T02:59:10.424Z,100737.63
2022-12-05T03:01:38.167Z,100733.22
2022-12-05T03:04:06.142Z,100738.19
2022-12-05T03:06:36.659Z,100737.91
2022-12-05T03:09:12.329Z,100735.84
2022-12-05T03:11:44.661Z,100737.41
2022-12-05T03:14:25.920Z,100740.41
2022-12-05T03:16:54.262Z,100742.94
2022-12-05T03:19:28.058Z,100746.81
2022-12-05T03:22:07.843Z,100742.41
2022-12-05T03:24:36.082Z,100747.94
2022-12-05T03:27:14.896Z,100742.66
2022-12-05T03:29:41.373Z,100744.22
2022-12-05T03:32:10.890Z,100748.09
2022-12-05T03:34:43.492Z,100750.34
2022-12-05T03:37:13.527Z,100749.16
2022-12-05T03:39:43.294Z,100753.00
2022-12-05T03:42:12.875Z,100746.53
2022-12-05T03:44:54.515Z,100739.88
2022-12-05T03:47:23.927Z,100750.47
2022-12-05T03:49:53.810Z,100745.19
2022-12-05T03:52:24.514Z,100753.53
2022-12-05T03:54:55.962Z,100741.66
2022-12-05T03:57:26.153Z,100746.53
2022-12-05T03:59:56.194Z,100750.94
2022-12-05T04:02:35.720Z,100751.53
2022-12-05T04:05:09.030Z,100754.38
2022-12-05T04:07:38.105Z,100756.81
2022-12-05T04:10:16.260Z,100760.31
2022-12-05T04:12:45.265Z,100758.69
2022-12-05T04:15:17.557Z,100766.16
2022-12-05T04:17:53.775Z,100768.09
2022-12-05T04:20:39.022Z,100765.78
2022-12-05T04:23:05.973Z,100759.50
2022-12-05T04:25:38.225Z,100767.19
2022-12-05T04:28:04.649Z,100765.47
2022-12-05T04:30:40.851Z,100769.56
2022-12-05T04:33:15.264Z,100774.13
2022-12-05T04:35:46.061Z,100771.66
2022-12-05T04:38:20.375Z,100767.31
2022-12-05T04:40:54.667Z,100770.63
2022-12-05T04:43:22.455Z,100775.56
2022-12-05T04:45:50.921Z,100773.31
2022-12-05T04:48:18.068Z,100779.19
2022-12-05T04:50:46.504Z,100780.25
2022-12-05T04:53:14.126Z,100787.47
2022-12-05T04:55:42.897Z,100790.00
2022-12-05T04:58:11.209Z,100783.78
2022-12-05T05:00:43.556Z,100790.47
2022-12-05T05:03:30.952Z,100787.19
2022-12-05T05:05:58.383Z,100783.44
2022-12-05T05:08:27.283Z,100788.41
2022-12-05T05:11:02.834Z,100787.31
2022-12-05T05:13:29.356Z,100794.84
2022-12-05T05:15:55.808Z,100787.66
2022-12-05T05:18:22.502Z,100791.41
2022-12-05T05:20:48.977Z,100791.41
2022-12-05T05:23:15.622Z,100797.28
2022-12-05T05:25:42.146Z,100794.00
2022-12-05T05:28:08.721Z,100794.47
2022-12-05T05:30:35.327Z,100796.69
2022-12-05T05:33:02.027Z,100800.00
2022-12-05T05:35:28.601Z,100798.69
2022-12-05T05:37:54.998Z,100801.19
2022-12-05T05:40:21.519Z,100808.69
2022-12-05T05:42:49.018Z,100809.16
2022-12-05T05:45:16.101Z,100813.97
2022-12-05T05:47:43.275Z,100810.13
2022-12-05T05:50:10.012Z,100812.91
2022-12-05T05:52:36.988Z,100814.81
2022-12-05T05:55:05.028Z,100804.44
2022-12-05T05:57:31.745Z,100808.81
2022-12-05T05:59:58.481Z,100808.53
2022-12-05T06:02:25.257Z,100817.84
2022-12-05T06:04:51.822Z,100810.22
2022-12-05T06:07:18.298Z,100811.22
2022-12-05T06:09:44.873Z,100809.06
2022-12-05T06:12:11.573Z,100821.19
2022-12-05T06:14:38.239Z,100823.38
2022-12-05T06:17:05.318Z,100817.63
2022-12-05T06:19:31.832Z,100821.78
2022-12-05T06:21:58.293Z,100817.16
2022-12-05T06:24:25.269Z,100821.25
2022-12-05T06:26:51.705Z,100821.78
2022-12-05T06:29:22.770Z,100827.84
2022-12-05T06:31:51.829Z,100828.94
2022-12-05T06:34:18.636Z,100828.78
2022-12-05T06:36:45.272Z,100834.16
2022-12-05T06:39:11.725Z,100826.41
2022-12-05T06:41:38.256Z,100833.00
2022-12-05T06:44:04.853Z,100835.19
2022-12-05T06:46:31.397Z,100837.88
2022-12-05T06:48:58.456Z,100833.81
2022-12-05T06:51:25.690Z,100836.63
2022-12-05T06:53:52.473Z,100838.28
2022-12-05T06:56:19.851Z,100843.06
2022-12-05T06:58:50.184Z,100841.78
2022-12-05T07:01:36.353Z,100846.72
2022-12-05T07:04:03.740Z,100848.25
2022-12-05T07:06:30.176Z,100844.75
2022-12-05T07:08:56.778Z,100847.75
2022-12-05T07:11:23.340Z,100859.03
2022-12-05T07:13:49.873Z,100859.53
2022-12-05T07:16:16.423Z,100859.19
2022-12-05T07:18:42.951Z,100864.06
2022-12-05T07:21:13.238Z,100864.13
2022-12-05T07:23:41.166Z,100866.34
2022-12-05T07:26:09.209Z,100868.81
2022-12-05T07:28:36.011Z,100866.94
2022-12-05T07:31:03.358Z,100865.81
2022-12-05T07:33:30.063Z,100868.00
2022-12-05T07:36:00.662Z,100885.00
2022-12-05T07:38:27.756Z,100878.69
2022-12-05T07:40:54.373Z,100881.16
2022-12-05T07:43:20.971Z,100887.19
2022-12-05T07:45:47.544Z,100884.44
2022-12-05T07:48:18.364Z,100885.25
2022-12-05T07:50:45.380Z,100887.66
2022-12-05T07:53:11.905Z,100892.69
2022-12-05T07:55:39.017Z,100895.94
2022-12-05T07:58:05.620Z,100900.66
2022-12-05T08:00:32.217Z,100895.94
2022-12-05T08:02:58.980Z,100897.03
2022-12-05T08:05:25.557Z,100900.06
2022-12-05T08:07:52.138Z,100903.13
2022-12-05T08:10:18.773Z,100908.66
2022-12-05T08:12:45.301Z,100897.81
2022-12-05T08:15:11.773Z,100906.28
2022-12-05T08:17:38.312Z,100911.03
2022-12-05T08:20:05.035Z,100909.69
2022-12-05T08:22:31.576Z,100916.03
2022-12-05T08:24:58.217Z,100920.16
2022-12-05T08:27:24.719Z,100917.69
2022-12-05T08:29:51.316Z,100924.00
2022-12-05T08:32:17.906Z,100932.00
2022-12-05T08:34:44.588Z,100927.59
2022-12-05T08:37:11.573Z,100930.38
2022-12-05T08:39:38.877Z,100934.47
2022-12-05T08:42:05.684Z,100928.59
2022-12-05T08:44:32.237Z,100938.63
2022-12-05T08:46:59.035Z,100936.06
2022-12-05T08:49:25.523Z,100938.88
2022-12-05T08:51:51.978Z,100943.50
2022-12-05T08:54:18.538Z,100939.41
2022-12-05T08:56:45.090Z,100951.03
2022-12-05T08:59:11.717Z,100956.34
2022-12-05T09:01:39.456Z,100950.06
2022-12-05T09:04:06.588Z,100951.41
2022-12-05T09:06:34.441Z,100955.59
2022-12-05T09:09:04.647Z,100959.44
2022-12-05T09:11:32.752Z,100962.25
2022-12-05T09:14:00.007Z,100958.91
2022-12-05T09:16:35.101Z,100960.22
2022-12-05T09:19:03.544Z,100971.56
2022-12-05T09:21:30.937Z,100968.06
2022-12-05T09:24:00.799Z,100964.44
2022-12-05T09:26:28.251Z,100973.53
2022-12-05T09:28:54.897Z,100968.31
2022-12-05T09:31:23.135Z,100975.00
2022-12-05T09:33:50.755Z,100968.38
2022-12-05T09:36:24.713Z,100977.03
2022-12-05T09:38:51.821Z,100975.47
2022-12-05T09:41:55.680Z,100984.56
2022-12-05T09:44:41.667Z,100985.69
2022-12-05T09:47:20.873Z,100989.81
2022-12-05T09:49:50.448Z,100989.75
2022-12-05T09:52:26.916Z,100988.06
2022-12-05T09:54:53.586Z,100999.63
2022-12-05T09:57:27.808Z,100984.53
2022-12-05T10:00:00.456Z,100990.88
2022-12-05T10:02:35.587Z,100990.28
2022-12-05T10:05:11.482Z,100982.53
2022-12-05T10:07:44.005Z,100985.25
2022-12-05T10:10:20.507Z,100976.38
2022-12-05T10:12:59.832Z,100975.09
2022-12-05T10:15:28.954Z,100980.88
2022-12-05T10:18:13.905Z,100968.97
2022-12-05T10:20:46.575Z,100980.38
2022-12-05T10:23:34.664Z,100976.72
2022-12-05T10:26:05.645Z,100980.88
2022-12-05T10:28:35.716Z,100973.72
2022-12-05T10:31:04.600Z,100978.66
2022-12-05T10:33:34.945Z,100972.91
2022-12-05T10:36:02.980Z,100976.44
2022-12-05T10:38:31.236Z,100976.44
2022-12-05T10:41:04.435Z,100985.25
2022-12-05T10:43:31.945Z,100983.59
2022-12-05T10:45:58.933Z,100980.25
2022-12-05T10:48:26.582Z,100984.72
2022-12-05T10:50:56.899Z,100984.66
2022-12-05T10:53:26.291Z,100990.75
2022-12-05T10:56:28.355Z,100985.81
2022-12-05T10:58:54.608Z,100990.44
2022-12-05T11:01:21.982Z,100980.78
2022-12-05T11:03:55.958Z,100974.44
2022-12-05T11:06:27.002Z,100974.13
2022-12-05T11:09:05.578Z,100973.63
2022-12-05T11:11:33.500Z,100974.72
2022-12-05T11:14:02.617Z,100975.28
2022-12-05T11:16:31.374Z,100984.91
2022-12-05T11:19:17.743Z,100991.00
2022-12-05T11:21:50.347Z,100989.06
2022-12-05T11:24:23.317Z,100986.31
2022-12-05T11:27:05.957Z,100984.34
2022-12-05T11:29:36.684Z,100980.72
2022-12-05T11:32:04.709Z,100983.50
2022-12-05T11:34:45.106Z,100981.25
2022-12-05T11:37:14.808Z,100969.69
2022-12-05T11:39:41.721Z,100973.47
2022-12-05T11:42:08.384Z,100980.06
2022-12-05T11:44:58.557Z,100980.66
2022-12-05T11:47:44.423Z,100969.63
2022-12-05T11:50:34.116Z,100979.25
2022-12-05T11:53:06.647Z,100973.97
2022-12-05T11:55:43.863Z,100975.63
2022-12-05T11:58:28.983Z,100977.25
2022-12-05T12:00:55.548Z,100976.72
2022-12-05T12:03:29.803Z,100970.09
2022-12-05T12:06:17.474Z,100961.50
2022-12-05T12:08:51.461Z,100969.28
2022-12-05T12:11:18.008Z,100968.97
2022-12-05T12:13:50.580Z,100975.84
2022-12-05T12:16:17.288Z,100974.44
2022-12-05T12:18:57.297Z,100967.28
2022-12-05T12:21:42.025Z,100976.06
2022-12-05T12:24:11.449Z,100979.97
2022-12-05T12:26:47.130Z,100979.97
2022-12-05T12:29:16.342Z,100977.72
2022-12-05T12:32:01.685Z,100982.75
2022-12-05T12:34:30.903Z,100977.50
2022-12-05T12:37:08.475Z,100975.25
2022-12-05T12:39:34.923Z,100976.06
2022-12-05T12:42:11.513Z,100979.34
2022-12-05T12:44:41.194Z,100974.66
2022-12-05T12:47:13.443Z,100984.88
2022-12-05T12:49:55.858Z,100984.88
2022-12-05T12:52:26.897Z,100973.56
2022-12-05T12:55:08.805Z,100974.38
2022-12-05T12:57:53.714Z,100971.63
2022-12-05T13:00:29.656Z,100974.97
2022-12-05T13:03:15.670Z,100975.50
2022-12-05T13:05:44.736Z,100985.13
2022-12-05T13:08:28.661Z,100977.41
2022-12-05T13:10:55.843Z,100976.59
2022-12-05T13:13:25.834Z,100965.53
2022-12-05T13:15:54.527Z,100967.72
2022-12-05T13:18:22.387Z,100968.84
2022-12-05T13:20:53.535Z,100971.06
2022-12-05T13:23:22.630Z,100973.50
2022-12-05T13:25:50.620Z,100974.94
2022-12-05T13:28:26.028Z,100968.81
2022-12-05T13:31:03.787Z,100977.94
2022-12-05T13:33:33.043Z,100980.44
2022-12-05T13:36:28.566Z,100977.69
2022-12-05T13:39:17.496Z,100978.22
2022-12-05T13:42:04.978Z,100972.16
2022-12-05T13:44:42.599Z,100987.06
2022-12-05T13:47:35.078Z,100988.69
2022-12-05T13:50:16.003Z,100996.94
2022-12-05T13:52:42.677Z,100996.44
2022-12-05T13:55:35.224Z,100985.63
2022-12-05T13:58:11.451Z,100989.81
2022-12-05T14:00:38.051Z,100987.84
2022-12-05T14:03:05.789Z,100983.16
2022-12-05T14:05:35.931Z,100986.75
2022-12-05T14:08:22.381Z,100980.94
2022-12-05T14:10:51.639Z,100983.16
2022-12-05T14:13:18.182Z,100977.88
2022-12-05T14:15:45.930Z,100985.91
2022-12-05T14:18:12.612Z,100985.63
2022-12-05T14:20:57.543Z,100990.34
2022-12-05T14:23:35.697Z,100995.34
2022-12-05T14:26:17.344Z,100991.44
2022-12-05T14:28:53.115Z,100992.19
2022-12-05T14:31:37.853Z,100993.63
2022-12-05T14:34:18.013Z,100989.22
2022-12-05T14:36:53.604Z,100998.88
2022-12-05T14:39:21.626Z,100987.25
2022-12-05T14:41:55.764Z,100993.09
2022-12-05T14:44:22.370Z,100990.34
2022-12-05T14:46:49.674Z,100999.72
2022-12-05T14:49:38.206Z,101009.09
2022-12-05T14:52:10.249Z,101001.84
2022-12-05T14:54:38.228Z,101002.13
2022-12-05T14:57:15.461Z,101002.72
2022-12-05T14:59:56.115Z,101000.22
2022-12-05T15:02:27.082Z,101010.09
2022-12-05T15:05:03.683Z,101010.00
2022-12-05T15:07:33.017Z,101010.41
2022-12-05T15:10:01.711Z,101010.25
2022-12-05T15:12:33.202Z,101020.59
2022-12-05T15:15:09.499Z,101018.88
2022-12-05T15:17:37.982Z,101019.69
2022-12-05T15:20:11.553Z,101023.13
2022-12-05T15:22:38.161Z,101031.97
2022-12-05T15:25:15.285Z,101023.00
2022-12-05T15:27:51.072Z,101023.59
2022-12-05T15:30:17.937Z,101024.66
2022-12-05T15:32:44.804Z,101030.19
2022-12-05T15:35:14.104Z,101021.94
2022-12-05T15:37:50.234Z,101030.38
2022-12-05T15:40:20.781Z,101035.91
2022-12-05T15:42:51.605Z,101043.69
2022-12-05T15:45:25.942Z,101046.16
2022-12-05T15:47:59.393Z,101037.81
2022-12-05T15:50:41.009Z,101043.69
2022-12-05T15:53:07.473Z,101051.38
2022-12-05T15:55:38.828Z,101043.25
2022-12-05T15:58:13.942Z,101049.28
2022-12-05T16:00:43.503Z,101056.75
2022-12-05T16:03:17.520Z,101051.06
2022-12-05T16:05:59.666Z,101052.13
2022-12-05T16:08:30.257Z,101057.06
2022-12-05T16:10:57.237Z,101062.44
2022-12-05T16:13:26.055Z,101062.09
2022-12-05T16:15:54.267Z,101057.66
2022-12-05T16:18:28.669Z,101068.22
2022-12-05T16:20:55.620Z,101068.03
2022-12-05T16:23:26.726Z,101065.19
2022-12-05T16:25:53.402Z,101066.63
2022-12-05T16:28:21.028Z,101071.25
2022-12-05T16:30:57.494Z,101069.91
2022-12-05T16:33:24.255Z,101069.03
2022-12-05T16:35:50.767Z,101068.88
2022-12-05T16:38:17.310Z,101069.31
2022-12-05T16:40:49.843Z,101069.91
2022-12-05T16:43:19.694Z,101078.28
2022-12-05T16:45:47.093Z,101074.59
2022-12-05T16:48:19.883Z,101074.06
2022-12-05T16:50:46.477Z,101071.72
2022-12-05T16:53:27.246Z,101070.03
2022-12-05T16:55:54.111Z,101075.47
2022-12-05T16:58:22.559Z,101070.41
2022-12-05T17:00:49.396Z,101077.38
2022-12-05T17:03:34.139Z,101077.28
2022-12-05T17:06:02.506Z,101081.63
2022-12-05T17:08:29.570Z,101069.66
2022-12-05T17:10:56.284Z,101074.97
2022-12-05T17:13:22.933Z,101067.38
2022-12-05T17:15:49.971Z,101072.72
2022-12-05T17:18:18.142Z,101075.53
2022-12-05T17:20:47.040Z,101080.25
2022-12-05T17:23:15.053Z,101076.13
2022-12-05T17:25:46.174Z,101074.72
2022-12-05T17:28:13.034Z,101074.09
2022-12-05T17:30:40.013Z,101070.00
2022-12-05T17:33:07.371Z,101069.78
2022-12-05T17:35:34.093Z,101073.66
2022-12-05T17:38:00.813Z,101074.50
2022-12-05T17:40:27.578Z,101076.88
2022-12-05T17:42:54.116Z,101075.91
2022-12-05T17:45:20.830Z,101077.53
2022-12-05T17:47:47.413Z,101081.88
2022-12-05T17:50:15.291Z,101092.34
2022-12-05T17:52:42.142Z,101088.59
2022-12-05T17:55:18.041Z,101087.41
2022-12-05T17:57:45.638Z,101091.53
2022-12-05T18:00:13.279Z,101087.19
2022-12-05T18:02:39.837Z,101091.31
2022-12-05T18:05:06.716Z,101097.88
2022-12-05T18:07:33.587Z,101093.78
2022-12-05T18:10:00.119Z,101089.66
2022-12-05T18:12:26.793Z,101090.25
2022-12-05T18:14:53.507Z,101095.19
2022-12-05T18:17:19.997Z,101099.31
2022-12-05T18:19:46.635Z,101098.03
2022-12-05T18:22:15.898Z,101101.56
2022-12-05T18:24:45.114Z,101103.19
2022-12-05T18:27:11.951Z,101092.94
2022-12-05T18:29:38.531Z,101103.56
2022-12-05T18:32:05.183Z,101104.09
2022-12-05T18:34:31.704Z,101106.84
2022-12-05T18:37:01.081Z,101115.66
2022-12-05T18:39:27.684Z,101120.94
2022-12-05T18:41:54.496Z,101113.22
2022-12-05T18:44:20.996Z,101112.97
2022-12-05T18:46:47.591Z,101117.66
2022-12-05T18:49:14.144Z,101108.03
2022-12-05T18:51:41.030Z,101109.69
2022-12-05T18:54:07.885Z,101112.13
2022-12-05T18:56:35.650Z,101111.28
2022-12-05T18:59:04.147Z,101117.91
2022-12-05T19:01:31.542Z,101121.78
2022-12-05T19:03:58.812Z,101112.38
2022-12-05T19:06:26.770Z,101117.91
2022-12-05T19:08:55.151Z,101117.31
2022-12-05T19:11:22.586Z,101116.25
2022-12-05T19:13:49.794Z,101110.13
2022-12-05T19:16:19.553Z,101117.31
2022-12-05T19:18:47.083Z,101116.72
2022-12-05T19:21:13.935Z,101125.69
2022-12-05T19:23:40.535Z,101125.09
2022-12-05T19:26:07.724Z,101124.13
2022-12-05T19:28:34.866Z,101126.97
2022-12-05T19:31:02.642Z,101122.84
2022-12-05T19:33:36.744Z,101127.28
2022-12-05T19:36:08.423Z,101124.50
2022-12-05T19:38:35.171Z,101127.28
2022-12-05T19:41:02.301Z,101131.91
2022-12-05T19:43:29.949Z,101137.09
2022-12-05T19:45:57.040Z,101140.97
2022-12-05T19:48:24.154Z,101135.19
2022-12-05T19:50:54.826Z,101145.44
2022-12-05T19:53:21.630Z,101148.25
2022-12-05T19:55:48.173Z,101145.44
2022-12-05T19:58:14.788Z,101146.56
2022-12-05T20:00:41.450Z,101146.50
2022-12-05T20:03:12.109Z,101143.81
2022-12-05T20:05:38.856Z,101145.91
2022-12-05T20:08:05.505Z,101144.25
2022-12-05T20:10:33.737Z,101144.84
2022-12-05T20:13:02.634Z,101141.47
2022-12-05T20:15:32.961Z,101140.88
2022-12-05T20:17:59.572Z,101146.97
2022-12-05T20:20:26.046Z,101148.75
2022-12-05T20:22:53.765Z,101143.97
2022-12-05T20:25:20.436Z,101137.53
2022-12-05T20:27:46.969Z,101151.91
2022-12-05T20:30:13.631Z,101140.28
2022-12-05T20:32:40.812Z,101128.72
2022-12-05T20:35:07.872Z,101135.06
2022-12-05T20:37:35.717Z,101128.72
2022-12-05T20:40:02.757Z,101125.44
2022-12-05T20:42:29.257Z,101122.59
2022-12-05T20:44:55.917Z,101126.22
2022-12-05T20:47:22.597Z,101133.41
2022-12-05T20:49:49.863Z,101125.88
2022-12-05T20:52:16.349Z,101129.81
2022-12-05T20:54:42.904Z,101123.41
2022-12-05T20:57:09.530Z,101131.16
2022-12-05T20:59:35.989Z,101130.88
2022-12-05T21:02:02.549Z,101128.34
2022-12-05T21:04:29.094Z,101129.47
2022-12-05T21:06:56.279Z,101127.00
2022-12-05T21:09:30.288Z,101123.19
2022-12-05T21:11:57.668Z,101115.94
2022-12-05T21:14:24.425Z,101118.72
2022-12-05T21:16:52.818Z,101119.00
2022-12-05T21:19:28.667Z,101122.59
2022-12-05T21:21:55.975Z,101120.41
2022-12-05T21:24:22.528Z,101123.69
2022-12-05T21:26:49.926Z,101111.28
2022-12-05T21:29:16.511Z,101118.16
2022-12-05T21:31:43.983Z,101118.41
2022-12-05T21:34:17.473Z,101111.22
2022-12-05T21:36:44.219Z,101116.47
2022-12-05T21:39:12.021Z,101109.94
2022-12-05T21:41:38.918Z,101111.31
2022-12-05T21:44:05.836Z,101114.63
2022-12-05T21:46:32.559Z,101110.13
2022-12-05T21:49:01.784Z,101116.53
2022-12-05T21:51:28.348Z,101105.84
2022-12-05T21:53:54.929Z,101099.03
2022-12-05T21:56:25.607Z,101110.44
2022-12-05T21:58:53.023Z,101115.34
2022-12-05T22:01:23.995Z,101114.81
2022-12-05T22:03:51.486Z,101115.41
2022-12-05T22:06:18.025Z,101125.88
2022-12-05T22:08:44.732Z,101123.22
2022-12-05T22:11:15.291Z,101123.72
2022-12-05T22:13:43.240Z,101125.06
2022-12-05T22:16:10.511Z,101126.09
2022-12-05T22:18:37.657Z,101126.53
2022-12-05T22:21:14.356Z,101122.44
2022-12-05T22:23:40.988Z,101129.22
2022-12-05T22:26:07.525Z,101134.84
2022-12-05T22:28:34.687Z,101126.03
2022-12-05T22:31:02.550Z,101122.72
2022-12-05T22:33:29.307Z,101129.91
2022-12-05T22:35:59.764Z,101127.88
2022-12-05T22:38:27.807Z,101127.06
2022-12-05T22:40:58.087Z,101122.94
2022-12-05T22:43:24.924Z,101116.06
2022-12-05T22:45:51.557Z,101121.06
2022-12-05T22:48:18.315Z,101121.44
2022-12-05T22:50:51.811Z,101111.78
2022-12-05T22:53:19.445Z,101110.13
2022-12-05T22:55:46.121Z,101117.38
2022-12-05T22:58:12.796Z,101115.22
2022-12-05T23:00:39.601Z,101112.50
2022-12-05T23:03:06.194Z,101105.91
2022-12-05T23:05:33.076Z,101109.28
2022-12-05T23:07:59.706Z,101112.31
2022-12-05T23:10:26.409Z,101118.16
2022-12-05T23:12:53.095Z,101111.72
2022-12-05T23:15:22.028Z,101106.97
2022-12-05T23:17:48.986Z,101112.03
2022-12-05T23:20:15.680Z,101108.69
2022-12-05T23:22:42.291Z,101115.81
2022-12-05T23:25:09.692Z,101112.03
2022-12-05T23:27:36.286Z,101116.75
2022-12-05T23:30:03.020Z,101116.47
2022-12-05T23:32:29.663Z,101113.16
2022-12-05T23:34:56.251Z,101105.09
2022-12-05T23:37:22.878Z,101107.69
2022-12-05T23:39:49.516Z,101111.53
2022-12-05T23:42:16.125Z,101108.19
2022-12-05T23:44:42.836Z,101110.97
2022-12-05T23:47:09.587Z,101110.38
2022-12-05T23:49:36.381Z,101113.72
2022-12-05T23:52:03.198Z,101112.13
2022-12-05T23:54:29.901Z,101114.63
2022-12-05T23:56:56.575Z,101117.66
2022-12-05T23:59:23.173Z,101113.34
